sensor_id;sensor_type;location;lat;lon;timestamp;pressure;altitude;pressure_sealevel;temperature;humidity
3142;BME280;1581;51.568;6.998;2023-03-18T00:00:58;100114.13;;;13.50;100.00
3142;BME280;1581;51.568;6.998;2023-03-18T00:03:26;100113.81;;;13.40;100.00
3142;BME280;1581;51.568;6.998;2023-03-18T00:06:03;100111.06;;;13.46;100.00
3142;BME280;1581;51.568;6.998;2023-03-18T00:08:32;100113.28;;;13.49;100.00
3142;BME280;1581;51.568;6.998;2023-03-18T00:11:00;100119.09;;;13.46;100.00
3142;BME280;1581;51.568;6.998;2023-03-18T00:13:29;100118.13;;;13.41;100.00
3142;BME280;1581;51.568;6.998;2023-03-18T00:15:57;100112.97;;;13.39;100.00
3142;BME280;1581;51.568;6.998;2023-03-18T00:18:24;100112.94;;;13.03;100.00
3142;BME280;1581;51.568;6.998;2023-03-18T00:20:52;100104.44;;;13.31;100.00
3142;BME280;1581;51.568;6.998;2023-03-18T00:23:20;100109.72;;;13.37;100.00
3142;BME280;1581;51.568;6.998;2023-03-18T00:25:48;100107.31;;;13.29;100.00
3142;BME280;1581;51.568;6.998;2023-03-18T00:28:18;100106.47;;;13.11;100.00
3142;BME280;1581;51.568;6.998;2023-03-18T00:30:47;100113.22;;;13.38;100.00
3142;BME280;1581;51.568;6.998;2023-03-18T00:33:16;100106.19;;;13.19;100.00
3142;BME280;1581;51.568;6.998;2023-03-18T00:35:44;100125.06;;;13.24;100.00
3142;BME280;1581;51.568;6.998;2023-03-18T00:38:14;100129.94;;;13.33;100.00
3142;BME280;1581;51.568;6.998;2023-03-18T00:40:46;100132.16;;;13.36;100.00
3142;BME280;1581;51.568;6.998;2023-03-18T00:43:37;100125.06;;;13.24;100.00
3142;BME280;1581;51.568;6.998;2023-03-18T00:46:14;100130.97;;;13.32;100.00
3142;BME280;1581;51.568;6.998;2023-03-18T00:48:43;100130.59;;;13.29;100.00
3142;BME280;1581;51.568;6.998;2023-03-18T00:51:12;100138.03;;;13.02;100.00
3142;BME280;1581;51.568;6.998;2023-03-18T00:53:43;100126.63;;;13.13;100.00
3142;BME280;1581;51.568;6.998;2023-03-18T00:56:12;100130.03;;;13.20;100.00
3142;BME280;1581;51.568;6.998;2023-03-18T00:58:40;100129.25;;;13.20;100.00
3142;BME280;1581;51.568;6.998;2023-03-18T01:01:09;100128.88;;;12.92;100.00
3142;BME280;1581;51.568;6.998;2023-03-18T01:03:39;100124.72;;;12.96;100.00
3142;BME280;1581;51.568;6.998;2023-03-18T01:06:09;100121.28;;;13.13;100.00
3142;BME280;1581;51.568;6.998;2023-03-18T01:08:38;100117.34;;;12.91;100.00
3142;BME280;1581;51.568;6.998;2023-03-18T01:11:07;100114.66;;;12.91;100.00
3142;BME280;1581;51.568;6.998;2023-03-18T01:13:36;100117.63;;;13.08;100.00
3142;BME280;1581;51.568;6.998;2023-03-18T01:16:05;100119.88;;;13.29;100.00
3142;BME280;1581;51.568;6.998;2023-03-18T01:18:34;100117.28;;;13.40;100.00
3142;BME280;1581;51.568;6.998;2023-03-18T01:21:04;100111.94;;;13.40;100.00
3142;BME280;1581;51.568;6.998;2023-03-18T01:23:31;100124.50;;;13.22;100.00
3142;BME280;1581;51.568;6.998;2023-03-18T01:25:59;100119.41;;;13.14;100.00
3142;BME280;1581;51.568;6.998;2023-03-18T01:28:27;100120.00;;;13.16;100.00
3142;BME280;1581;51.568;6.998;2023-03-18T01:30:55;100128.69;;;13.11;100.00
3142;BME280;1581;51.568;6.998;2023-03-18T01:33:23;100127.13;;;12.73;100.00
3142;BME280;1581;51.568;6.998;2023-03-18T01:35:53;100128.22;;;12.96;100.00
3142;BME280;1581;51.568;6.998;2023-03-18T01:38:25;100123.81;;;12.78;100.00
3142;BME280;1581;51.568;6.998;2023-03-18T01:40:55;100124.16;;;12.88;100.00
3142;BME280;1581;51.568;6.998;2023-03-18T01:43:26;100130.66;;;13.22;100.00
3142;BME280;1581;51.568;6.998;2023-03-18T01:45:56;100123.63;;;13.03;100.00
3142;BME280;1581;51.568;6.998;2023-03-18T01:48:28;100119.97;;;12.98;100.00
3142;BME280;1581;51.568;6.998;2023-03-18T01:51:07;100129.91;;;12.60;100.00
3142;BME280;1581;51.568;6.998;2023-03-18T01:53:43;100128.28;;;12.84;100.00
3142;BME280;1581;51.568;6.998;2023-03-18T01:56:13;100122.97;;;12.77;100.00
3142;BME280;1581;51.568;6.998;2023-03-18T01:58:45;100133.88;;;12.51;100.00
3142;BME280;1581;51.568;6.998;2023-03-18T02:01:20;100130.44;;;12.69;100.00
3142;BME280;1581;51.568;6.998;2023-03-18T02:03:51;100142.06;;;12.81;100.00
3142;BME280;1581;51.568;6.998;2023-03-18T02:06:19;100135.41;;;12.65;100.00
3142;BME280;1581;51.568;6.998;2023-03-18T02:08:49;100147.13;;;12.64;100.00
3142;BME280;1581;51.568;6.998;2023-03-18T02:11:17;100144.69;;;12.63;100.00
3142;BME280;1581;51.568;6.998;2023-03-18T02:13:45;100148.69;;;12.47;100.00
3142;BME280;1581;51.568;6.998;2023-03-18T02:16:17;100142.72;;;12.76;100.00
3142;BME280;1581;51.568;6.998;2023-03-18T02:18:52;100138.91;;;12.66;100.00
3142;BME280;1581;51.568;6.998;2023-03-18T02:21:36;100123.31;;;12.63;100.00
3142;BME280;1581;51.568;6.998;2023-03-18T02:24:19;100130.78;;;12.79;100.00
3142;BME280;1581;51.568;6.998;2023-03-18T02:26:55;100126.91;;;12.75;100.00
3142;BME280;1581;51.568;6.998;2023-03-18T02:29:28;100118.69;;;13.00;100.00
3142;BME280;1581;51.568;6.998;2023-03-18T02:32:00;100124.56;;;12.85;100.00
3142;BME280;1581;51.568;6.998;2023-03-18T02:34:29;100138.56;;;12.87;100.00
3142;BME280;1581;51.568;6.998;2023-03-18T02:36:58;100127.94;;;12.74;100.00
3142;BME280;1581;51.568;6.998;2023-03-18T02:39:25;100126.97;;;12.68;100.00
3142;BME280;1581;51.568;6.998;2023-03-18T02:41:55;100140.56;;;12.67;100.00
3142;BME280;1581;51.568;6.998;2023-03-18T02:44:25;100145.25;;;12.71;100.00
3142;BME280;1581;51.568;6.998;2023-03-18T02:46:55;100145.13;;;12.53;100.00
3142;BME280;1581;51.568;6.998;2023-03-18T02:49:25;100140.94;;;12.39;100.00
3142;BME280;1581;51.568;6.998;2023-03-18T02:51:54;100141.56;;;12.35;100.00
3142;BME280;1581;51.568;6.998;2023-03-18T02:54:26;100135.16;;;12.42;100.00
3142;BME280;1581;51.568;6.998;2023-03-18T02:56:55;100125.38;;;12.23;100.00
3142;BME280;1581;51.568;6.998;2023-03-18T02:59:25;100135.50;;;12.21;100.00
3142;BME280;1581;51.568;6.998;2023-03-18T03:01:54;100132.31;;;12.37;100.00
3142;BME280;1581;51.568;6.998;2023-03-18T03:04:24;100137.72;;;12.24;100.00
3142;BME280;1581;51.568;6.998;2023-03-18T03:06:54;100137.53;;;12.26;100.00
3142;BME280;1581;51.568;6.998;2023-03-18T03:09:22;100136.78;;;12.06;100.00
3142;BME280;1581;51.568;6.998;2023-03-18T03:11:50;100136.84;;;12.37;100.00
3142;BME280;1581;51.568;6.998;2023-03-18T03:14:18;100142.53;;;12.09;100.00
3142;BME280;1581;51.568;6.998;2023-03-18T03:16:47;100145.63;;;12.06;100.00
3142;BME280;1581;51.568;6.998;2023-03-18T03:19:15;100152.38;;;12.09;100.00
3142;BME280;1581;51.568;6.998;2023-03-18T03:21:42;100150.44;;;12.29;100.00
3142;BME280;1581;51.568;6.998;2023-03-18T03:24:10;100153.78;;;12.55;100.00
3142;BME280;1581;51.568;6.998;2023-03-18T03:26:37;100148.97;;;12.70;100.00
3142;BME280;1581;51.568;6.998;2023-03-18T03:29:06;100148.72;;;12.72;100.00
3142;BME280;1581;51.568;6.998;2023-03-18T03:31:33;100150.59;;;12.71;100.00
3142;BME280;1581;51.568;6.998;2023-03-18T03:34:03;100154.44;;;12.75;100.00
3142;BME280;1581;51.568;6.998;2023-03-18T03:36:31;100156.59;;;12.67;100.00
3142;BME280;1581;51.568;6.998;2023-03-18T03:38:59;100152.44;;;12.71;100.00
3142;BME280;1581;51.568;6.998;2023-03-18T03:41:27;100155.13;;;12.33;100.00
3142;BME280;1581;51.568;6.998;2023-03-18T03:43:55;100155.94;;;12.71;100.00
3142;BME280;1581;51.568;6.998;2023-03-18T03:46:22;100152.38;;;12.77;100.00
3142;BME280;1581;51.568;6.998;2023-03-18T03:48:50;100146.41;;;12.51;100.00
3142;BME280;1581;51.568;6.998;2023-03-18T03:51:19;100157.47;;;12.54;100.00
3142;BME280;1581;51.568;6.998;2023-03-18T03:53:47;100156.13;;;12.70;100.00
3142;BME280;1581;51.568;6.998;2023-03-18T03:56:16;100167.38;;;12.47;100.00
3142;BME280;1581;51.568;6.998;2023-03-18T03:58:44;100173.47;;;12.61;100.00
3142;BME280;1581;51.568;6.998;2023-03-18T04:01:12;100175.69;;;12.33;100.00
3142;BME280;1581;51.568;6.998;2023-03-18T04:03:40;100172.22;;;12.32;100.00
3142;BME280;1581;51.568;6.998;2023-03-18T04:06:08;100173.09;;;12.57;100.00
3142;BME280;1581;51.568;6.998;2023-03-18T04:08:38;100169.75;;;12.24;100.00
3142;BME280;1581;51.568;6.998;2023-03-18T04:11:06;100179.53;;;12.43;100.00
3142;BME280;1581;51.568;6.998;2023-03-18T04:13:35;100176.94;;;12.30;100.00
3142;BME280;1581;51.568;6.998;2023-03-18T04:16:03;100180.09;;;12.14;100.00
3142;BME280;1581;51.568;6.998;2023-03-18T04:18:30;100185.75;;;12.37;100.00
3142;BME280;1581;51.568;6.998;2023-03-18T04:20:58;100182.81;;;12.45;100.00
3142;BME280;1581;51.568;6.998;2023-03-18T04:23:26;100187.72;;;12.11;100.00
3142;BME280;1581;51.568;6.998;2023-03-18T04:25:55;100187.00;;;12.35;100.00
3142;BME280;1581;51.568;6.998;2023-03-18T04:28:23;100192.09;;;12.43;100.00
3142;BME280;1581;51.568;6.998;2023-03-18T04:30:50;100191.00;;;12.57;100.00
3142;BME280;1581;51.568;6.998;2023-03-18T04:33:18;100203.41;;;12.76;100.00
3142;BME280;1581;51.568;6.998;2023-03-18T04:35:47;100202.16;;;12.41;100.00
3142;BME280;1581;51.568;6.998;2023-03-18T04:38:15;100198.00;;;12.51;100.00
3142;BME280;1581;51.568;6.998;2023-03-18T04:40:43;100194.88;;;12.54;100.00
3142;BME280;1581;51.568;6.998;2023-03-18T04:43:13;100191.00;;;12.57;100.00
3142;BME280;1581;51.568;6.998;2023-03-18T04:45:40;100199.41;;;12.60;100.00
3142;BME280;1581;51.568;6.998;2023-03-18T04:48:08;100202.03;;;12.29;100.00
3142;BME280;1581;51.568;6.998;2023-03-18T04:50:36;100204.06;;;12.27;100.00
3142;BME280;1581;51.568;6.998;2023-03-18T04:53:05;100213.44;;;12.49;100.00
3142;BME280;1581;51.568;6.998;2023-03-18T04:55:32;100211.22;;;12.33;100.00
3142;BME280;1581;51.568;6.998;2023-03-18T04:58:00;100209.78;;;12.37;100.00
3142;BME280;1581;51.568;6.998;2023-03-18T05:00:30;100211.97;;;12.53;100.00
3142;BME280;1581;51.568;6.998;2023-03-18T05:02:57;100208.81;;;12.19;100.00
3142;BME280;1581;51.568;6.998;2023-03-18T05:05:26;100211.34;;;12.07;100.00
3142;BME280;1581;51.568;6.998;2023-03-18T05:07:54;100212.69;;;12.29;100.00
3142;BME280;1581;51.568;6.998;2023-03-18T05:10:22;100211.59;;;12.43;100.00
3142;BME280;1581;51.568;6.998;2023-03-18T05:12:50;100221.09;;;12.39;100.00
3142;BME280;1581;51.568;6.998;2023-03-18T05:15:18;100213.97;;;12.58;100.00
3142;BME280;1581;51.568;6.998;2023-03-18T05:17:47;100220.53;;;12.24;100.00
3142;BME280;1581;51.568;6.998;2023-03-18T05:20:14;100227.13;;;12.15;100.00
3142;BME280;1581;51.568;6.998;2023-03-18T05:22:42;100224.09;;;12.05;100.00
3142;BME280;1581;51.568;6.998;2023-03-18T05:25:10;100224.16;;;11.93;100.00
3142;BME280;1581;51.568;6.998;2023-03-18T05:27:38;100218.75;;;12.05;100.00
3142;BME280;1581;51.568;6.998;2023-03-18T05:30:08;100224.53;;;12.02;100.00
3142;BME280;1581;51.568;6.998;2023-03-18T05:32:37;100216.53;;;11.90;100.00
3142;BME280;1581;51.568;6.998;2023-03-18T05:35:08;100223.38;;;12.29;100.00
3142;BME280;1581;51.568;6.998;2023-03-18T05:37:36;100228.41;;;12.06;100.00
3142;BME280;1581;51.568;6.998;2023-03-18T05:40:05;100237.03;;;12.02;100.00
3142;BME280;1581;51.568;6.998;2023-03-18T05:42:35;100226.56;;;12.07;100.00
3142;BME280;1581;51.568;6.998;2023-03-18T05:45:04;100235.75;;;12.24;100.00
3142;BME280;1581;51.568;6.998;2023-03-18T05:47:32;100236.44;;;12.00;100.00
3142;BME280;1581;51.568;6.998;2023-03-18T05:50:01;100229.91;;;11.90;100.00
3142;BME280;1581;51.568;6.998;2023-03-18T05:52:30;100238.47;;;11.98;100.00
3142;BME280;1581;51.568;6.998;2023-03-18T05:54:58;100236.16;;;12.21;100.00
3142;BME280;1581;51.568;6.998;2023-03-18T05:57:26;100246.31;;;12.00;100.00
3142;BME280;1581;51.568;6.998;2023-03-18T05:59:53;100247.31;;;12.05;100.00
3142;BME280;1581;51.568;6.998;2023-03-18T06:02:21;100251.81;;;12.04;100.00
3142;BME280;1581;51.568;6.998;2023-03-18T06:04:50;100255.75;;;11.96;100.00
3142;BME280;1581;51.568;6.998;2023-03-18T06:07:17;100259.66;;;12.00;100.00
3142;BME280;1581;51.568;6.998;2023-03-18T06:09:47;100256.28;;;12.23;100.00
3142;BME280;1581;51.568;6.998;2023-03-18T06:12:15;100254.94;;;12.02;100.00
3142;BME280;1581;51.568;6.998;2023-03-18T06:14:45;100257.75;;;12.19;100.00
3142;BME280;1581;51.568;6.998;2023-03-18T06:17:13;100262.03;;;12.27;100.00
3142;BME280;1581;51.568;6.998;2023-03-18T06:19:40;100269.47;;;12.18;100.00
3142;BME280;1581;51.568;6.998;2023-03-18T06:22:10;100264.09;;;12.31;100.00
3142;BME280;1581;51.568;6.998;2023-03-18T06:24:38;100259.63;;;12.12;100.00
3142;BME280;1581;51.568;6.998;2023-03-18T06:27:07;100260.19;;;12.21;100.00
3142;BME280;1581;51.568;6.998;2023-03-18T06:29:35;100265.91;;;12.37;100.00
3142;BME280;1581;51.568;6.998;2023-03-18T06:32:03;100275.81;;;12.17;100.00
3142;BME280;1581;51.568;6.998;2023-03-18T06:34:33;100274.13;;;12.42;100.00
3142;BME280;1581;51.568;6.998;2023-03-18T06:37:01;100281.31;;;12.29;100.00
3142;BME280;1581;51.568;6.998;2023-03-18T06:39:29;100280.75;;;12.27;100.00
3142;BME280;1581;51.568;6.998;2023-03-18T06:41:57;100288.72;;;12.33;100.00
3142;BME280;1581;51.568;6.998;2023-03-18T06:44:27;100290.59;;;12.20;100.00
3142;BME280;1581;51.568;6.998;2023-03-18T06:46:55;100282.34;;;12.28;100.00
3142;BME280;1581;51.568;6.998;2023-03-18T06:49:22;100298.44;;;12.21;100.00
3142;BME280;1581;51.568;6.998;2023-03-18T06:51:50;100290.44;;;12.15;100.00
3142;BME280;1581;51.568;6.998;2023-03-18T06:54:18;100300.41;;;12.45;100.00
3142;BME280;1581;51.568;6.998;2023-03-18T06:56:46;100297.81;;;12.19;100.00
3142;BME280;1581;51.568;6.998;2023-03-18T06:59:14;100305.59;;;12.27;100.00
3142;BME280;1581;51.568;6.998;2023-03-18T07:01:43;100298.81;;;12.25;100.00
3142;BME280;1581;51.568;6.998;2023-03-18T07:04:10;100301.03;;;12.41;100.00
3142;BME280;1581;51.568;6.998;2023-03-18T07:06:39;100308.78;;;12.55;100.00
3142;BME280;1581;51.568;6.998;2023-03-18T07:09:07;100300.25;;;12.27;100.00
3142;BME280;1581;51.568;6.998;2023-03-18T07:11:36;100296.13;;;12.31;100.00
3142;BME280;1581;51.568;6.998;2023-03-18T07:14:03;100295.78;;;12.15;100.00
3142;BME280;1581;51.568;6.998;2023-03-18T07:16:32;100311.72;;;12.34;100.00
3142;BME280;1581;51.568;6.998;2023-03-18T07:19:02;100298.44;;;12.15;100.00
3142;BME280;1581;51.568;6.998;2023-03-18T07:21:29;100304.19;;;12.12;100.00
3142;BME280;1581;51.568;6.998;2023-03-18T07:23:57;100310.56;;;12.11;100.00
3142;BME280;1581;51.568;6.998;2023-03-18T07:26:25;100312.19;;;12.18;100.00
3142;BME280;1581;51.568;6.998;2023-03-18T07:28:53;100322.59;;;12.52;100.00
3142;BME280;1581;51.568;6.998;2023-03-18T07:31:20;100316.50;;;12.32;100.00
3142;BME280;1581;51.568;6.998;2023-03-18T07:33:48;100322.03;;;12.24;100.00
3142;BME280;1581;51.568;6.998;2023-03-18T07:36:17;100321.84;;;12.26;100.00
3142;BME280;1581;51.568;6.998;2023-03-18T07:38:45;100330.63;;;12.39;100.00
3142;BME280;1581;51.568;6.998;2023-03-18T07:41:13;100323.81;;;12.43;100.00
3142;BME280;1581;51.568;6.998;2023-03-18T07:43:41;100328.69;;;12.72;100.00
3142;BME280;1581;51.568;6.998;2023-03-18T07:46:08;100333.03;;;12.67;100.00
3142;BME280;1581;51.568;6.998;2023-03-18T07:48:36;100332.44;;;12.58;100.00
3142;BME280;1581;51.568;6.998;2023-03-18T07:51:04;100334.63;;;12.74;100.00
3142;BME280;1581;51.568;6.998;2023-03-18T07:53:33;100327.72;;;13.04;100.00
3142;BME280;1581;51.568;6.998;2023-03-18T07:56:01;100336.63;;;12.91;100.00
3142;BME280;1581;51.568;6.998;2023-03-18T07:58:28;100332.31;;;12.84;100.00
3142;BME280;1581;51.568;6.998;2023-03-18T08:00:56;100338.38;;;13.10;100.00
3142;BME280;1581;51.568;6.998;2023-03-18T08:03:25;100341.34;;;12.96;100.00
3142;BME280;1581;51.568;6.998;2023-03-18T08:05:53;100349.25;;;13.22;100.00
3142;BME280;1581;51.568;6.998;2023-03-18T08:08:21;100343.31;;;13.13;100.00
3142;BME280;1581;51.568;6.998;2023-03-18T08:10:55;100352.38;;;13.12;100.00
3142;BME280;1581;51.568;6.998;2023-03-18T08:13:23;100348.72;;;13.00;100.00
3142;BME280;1581;51.568;6.998;2023-03-18T08:15:52;100347.41;;;13.16;100.00
3142;BME280;1581;51.568;6.998;2023-03-18T08:18:19;100356.56;;;13.02;100.00
3142;BME280;1581;51.568;6.998;2023-03-18T08:20:47;100354.53;;;12.91;100.00
3142;BME280;1581;51.568;6.998;2023-03-18T08:23:15;100363.63;;;13.27;100.00
3142;BME280;1581;51.568;6.998;2023-03-18T08:25:45;100360.66;;;13.04;100.00
3142;BME280;1581;51.568;6.998;2023-03-18T08:28:15;100363.72;;;13.01;100.00
3142;BME280;1581;51.568;6.998;2023-03-18T08:30:43;100367.41;;;13.07;100.00
3142;BME280;1581;51.568;6.998;2023-03-18T08:33:12;100371.53;;;13.03;100.00
3142;BME280;1581;51.568;6.998;2023-03-18T08:35:40;100375.38;;;13.20;100.00
3142;BME280;1581;51.568;6.998;2023-03-18T08:38:08;100376.69;;;13.42;100.00
3142;BME280;1581;51.568;6.998;2023-03-18T08:40:36;100377.16;;;13.63;100.00
3142;BME280;1581;51.568;6.998;2023-03-18T08:43:03;100380.59;;;13.39;100.00
3142;BME280;1581;51.568;6.998;2023-03-18T08:45:35;100383.84;;;13.48;100.00
3142;BME280;1581;51.568;6.998;2023-03-18T08:48:03;100384.84;;;13.53;100.00
3142;BME280;1581;51.568;6.998;2023-03-18T08:50:30;100386.88;;;13.58;100.00
3142;BME280;1581;51.568;6.998;2023-03-18T08:52:59;100388.47;;;13.65;100.00
3142;BME280;1581;51.568;6.998;2023-03-18T08:55:30;100386.50;;;13.54;100.00
3142;BME280;1581;51.568;6.998;2023-03-18T08:58:00;100391.28;;;14.01;100.00
3142;BME280;1581;51.568;6.998;2023-03-18T09:00:29;100399.81;;;13.91;100.00
3142;BME280;1581;51.568;6.998;2023-03-18T09:02:58;100399.13;;;14.02;100.00
3142;BME280;1581;51.568;6.998;2023-03-18T09:05:26;100395.31;;;14.16;100.00
3142;BME280;1581;51.568;6.998;2023-03-18T09:07:55;100399.81;;;14.22;100.00
3142;BME280;1581;51.568;6.998;2023-03-18T09:10:23;100398.94;;;14.46;100.00
3142;BME280;1581;51.568;6.998;2023-03-18T09:12:51;100406.69;;;14.54;100.00
3142;BME280;1581;51.568;6.998;2023-03-18T09:15:19;100402.44;;;14.47;100.00
3142;BME280;1581;51.568;6.998;2023-03-18T09:17:48;100398.88;;;14.53;100.00
3142;BME280;1581;51.568;6.998;2023-03-18T09:20:17;100402.13;;;14.37;100.00
3142;BME280;1581;51.568;6.998;2023-03-18T09:22:45;100403.44;;;14.28;100.00
3142;BME280;1581;51.568;6.998;2023-03-18T09:25:16;100399.59;;;14.42;100.00
3142;BME280;1581;51.568;6.998;2023-03-18T09:27:43;100410.88;;;14.50;100.00
3142;BME280;1581;51.568;6.998;2023-03-18T09:30:12;100403.44;;;14.52;100.00
3142;BME280;1581;51.568;6.998;2023-03-18T09:32:40;100402.66;;;14.63;100.00
3142;BME280;1581;51.568;6.998;2023-03-18T09:35:09;100394.03;;;14.79;100.00
3142;BME280;1581;51.568;6.998;2023-03-18T09:37:39;100396.41;;;14.51;100.00
3142;BME280;1581;51.568;6.998;2023-03-18T09:40:11;100403.03;;;14.49;100.00
3142;BME280;1581;51.568;6.998;2023-03-18T09:42:54;100398.06;;;14.52;100.00
3142;BME280;1581;51.568;6.998;2023-03-18T09:45:32;100402.22;;;14.48;100.00
3142;BME280;1581;51.568;6.998;2023-03-18T09:51:00;100403.78;;;14.91;100.00
3142;BME280;1581;51.568;6.998;2023-03-18T09:53:42;100407.97;;;14.69;100.00
3142;BME280;1581;51.568;6.998;2023-03-18T09:56:16;100410.72;;;14.99;100.00
3142;BME280;1581;51.568;6.998;2023-03-18T09:58:51;100417.63;;;15.42;100.00
3142;BME280;1581;51.568;6.998;2023-03-18T10:01:23;100418.03;;;15.28;100.00
3142;BME280;1581;51.568;6.998;2023-03-18T10:03:58;100418.91;;;15.40;100.00
3142;BME280;1581;51.568;6.998;2023-03-18T10:06:29;100422.53;;;15.45;100.00
3142;BME280;1581;51.568;6.998;2023-03-18T10:09:07;100418.00;;;15.98;100.00
3142;BME280;1581;51.568;6.998;2023-03-18T10:11:42;100421.72;;;16.38;100.00
3142;BME280;1581;51.568;6.998;2023-03-18T10:14:23;100419.50;;;16.46;100.00
3142;BME280;1581;51.568;6.998;2023-03-18T10:17:05;100429.09;;;16.53;99.05
3142;BME280;1581;51.568;6.998;2023-03-18T10:19:35;100424.50;;;16.77;99.21
3142;BME280;1581;51.568;6.998;2023-03-18T10:25:14;100430.34;;;16.97;96.52
3142;BME280;1581;51.568;6.998;2023-03-18T10:27:53;100422.78;;;16.37;97.76
3142;BME280;1581;51.568;6.998;2023-03-18T10:30:49;100426.16;;;16.55;97.23
3142;BME280;1581;51.568;6.998;2023-03-18T10:33:32;100416.88;;;16.05;99.15
3142;BME280;1581;51.568;6.998;2023-03-18T10:36:07;100420.09;;;16.37;99.20
3142;BME280;1581;51.568;6.998;2023-03-18T10:38:42;100414.56;;;16.43;98.79
3142;BME280;1581;51.568;6.998;2023-03-18T10:41:20;100414.03;;;16.41;99.34
3142;BME280;1581;51.568;6.998;2023-03-18T10:43:51;100408.00;;;16.28;100.00
3142;BME280;1581;51.568;6.998;2023-03-18T10:46:21;100405.00;;;16.70;98.92
3142;BME280;1581;51.568;6.998;2023-03-18T10:48:53;100404.28;;;16.74;96.37
3142;BME280;1581;51.568;6.998;2023-03-18T10:51:29;100410.34;;;16.81;96.16
3142;BME280;1581;51.568;6.998;2023-03-18T10:54:05;100410.50;;;17.14;96.09
3142;BME280;1581;51.568;6.998;2023-03-18T10:56:38;100415.72;;;16.81;95.08
3142;BME280;1581;51.568;6.998;2023-03-18T10:59:12;100414.56;;;17.28;95.67
3142;BME280;1581;51.568;6.998;2023-03-18T11:01:47;100415.22;;;17.46;95.41
3142;BME280;1581;51.568;6.998;2023-03-18T11:04:18;100416.03;;;17.47;93.32
3142;BME280;1581;51.568;6.998;2023-03-18T11:06:49;100414.47;;;17.79;89.33
3142;BME280;1581;51.568;6.998;2023-03-18T11:09:21;100412.31;;;18.41;89.29
3142;BME280;1581;51.568;6.998;2023-03-18T11:11:56;100415.03;;;18.41;85.69
3142;BME280;1581;51.568;6.998;2023-03-18T11:14:30;100401.31;;;18.26;87.54
3142;BME280;1581;51.568;6.998;2023-03-18T11:17:00;100394.09;;;18.15;86.61
3142;BME280;1581;51.568;6.998;2023-03-18T11:19:31;100390.25;;;18.82;84.99
3142;BME280;1581;51.568;6.998;2023-03-18T11:22:10;100394.16;;;19.12;82.62
3142;BME280;1581;51.568;6.998;2023-03-18T11:24:41;100395.78;;;19.13;84.20
3142;BME280;1581;51.568;6.998;2023-03-18T11:27:26;100401.03;;;18.61;82.91
3142;BME280;1581;51.568;6.998;2023-03-18T11:29:58;100389.97;;;17.64;83.24
3142;BME280;1581;51.568;6.998;2023-03-18T11:32:28;100394.97;;;17.44;86.31
3142;BME280;1581;51.568;6.998;2023-03-18T11:34:59;100403.44;;;17.64;85.40
3142;BME280;1581;51.568;6.998;2023-03-18T11:37:30;100408.25;;;18.77;82.92
3142;BME280;1581;51.568;6.998;2023-03-18T11:40:23;100399.31;;;19.14;81.30
3142;BME280;1581;51.568;6.998;2023-03-18T11:42:57;100406.28;;;19.58;77.91
3142;BME280;1581;51.568;6.998;2023-03-18T11:45:44;100404.34;;;19.80;76.28
3142;BME280;1581;51.568;6.998;2023-03-18T11:48:26;100412.34;;;20.22;74.12
3142;BME280;1581;51.568;6.998;2023-03-18T11:51:26;100406.03;;;20.48;70.91
3142;BME280;1581;51.568;6.998;2023-03-18T11:54:22;100407.41;;;20.14;72.35
3142;BME280;1581;51.568;6.998;2023-03-18T11:57:01;100402.53;;;20.16;71.67
3142;BME280;1581;51.568;6.998;2023-03-18T11:59:45;100393.31;;;20.49;71.49
3142;BME280;1581;51.568;6.998;2023-03-18T12:02:29;100401.94;;;19.83;75.15
3142;BME280;1581;51.568;6.998;2023-03-18T12:08:08;100407.81;;;19.75;68.74
3142;BME280;1581;51.568;6.998;2023-03-18T12:10:43;100397.66;;;19.56;68.02
3142;BME280;1581;51.568;6.998;2023-03-18T12:13:35;100383.69;;;20.68;66.87
3142;BME280;1581;51.568;6.998;2023-03-18T12:16:15;100389.09;;;21.14;65.94
3142;BME280;1581;51.568;6.998;2023-03-18T12:22:21;100390.69;;;19.91;63.57
3142;BME280;1581;51.568;6.998;2023-03-18T12:25:23;100396.91;;;21.00;60.93
3142;BME280;1581;51.568;6.998;2023-03-18T12:28:02;100387.38;;;22.44;56.25
3142;BME280;1581;51.568;6.998;2023-03-18T12:31:22;100396.91;;;22.01;55.68
3142;BME280;1581;51.568;6.998;2023-03-18T12:33:54;100399.53;;;21.57;53.68
3142;BME280;1581;51.568;6.998;2023-03-18T12:36:46;100396.50;;;21.43;54.60
3142;BME280;1581;51.568;6.998;2023-03-18T12:39:55;100394.66;;;20.46;56.06
3142;BME280;1581;51.568;6.998;2023-03-18T12:42:36;100390.91;;;21.84;54.38
3142;BME280;1581;51.568;6.998;2023-03-18T12:45:13;100394.13;;;21.67;54.73
3142;BME280;1581;51.568;6.998;2023-03-18T12:47:46;100390.09;;;22.54;53.44
3142;BME280;1581;51.568;6.998;2023-03-18T12:50:21;100381.34;;;22.76;52.65
3142;BME280;1581;51.568;6.998;2023-03-18T12:52:54;100380.84;;;22.59;52.26
3142;BME280;1581;51.568;6.998;2023-03-18T12:55:27;100385.75;;;22.23;53.63
3142;BME280;1581;51.568;6.998;2023-03-18T12:57:59;100379.25;;;22.34;51.71
3142;BME280;1581;51.568;6.998;2023-03-18T13:00:31;100371.66;;;21.96;51.68
3142;BME280;1581;51.568;6.998;2023-03-18T13:03:08;100374.91;;;22.18;53.58
3142;BME280;1581;51.568;6.998;2023-03-18T13:05:48;100365.94;;;21.67;53.36
3142;BME280;1581;51.568;6.998;2023-03-18T13:08:39;100364.03;;;22.58;51.95
3142;BME280;1581;51.568;6.998;2023-03-18T13:11:17;100371.47;;;24.30;47.08
3142;BME280;1581;51.568;6.998;2023-03-18T13:13:54;100370.25;;;23.31;47.67
3142;BME280;1581;51.568;6.998;2023-03-18T13:16:26;100365.31;;;23.86;46.71
3142;BME280;1581;51.568;6.998;2023-03-18T13:18:57;100371.94;;;23.27;49.30
3142;BME280;1581;51.568;6.998;2023-03-18T13:21:30;100374.38;;;23.72;45.75
3142;BME280;1581;51.568;6.998;2023-03-18T13:24:33;100375.84;;;25.66;42.66
3142;BME280;1581;51.568;6.998;2023-03-18T13:27:19;100356.69;;;22.53;47.46
3142;BME280;1581;51.568;6.998;2023-03-18T13:29:56;100359.19;;;22.40;48.40
3142;BME280;1581;51.568;6.998;2023-03-18T13:32:54;100362.78;;;20.17;56.53
3142;BME280;1581;51.568;6.998;2023-03-18T13:36:00;100358.59;;;19.73;60.81
3142;BME280;1581;51.568;6.998;2023-03-18T13:38:59;100368.03;;;19.44;61.80